createdAt,value
2022-08-03T00:00:58.573Z,56.66
2022-08-03T00:06:03.901Z,56.72
2022-08-03T00:11:08.983Z,56.65
2022-08-03T00:16:13.715Z,56.58
2022-08-03T00:21:18.184Z,56.66
2022-08-03T00:26:22.538Z,56.60
2022-08-03T00:31:51.667Z,56.61
2022-08-03T00:36:51.034Z,56.58
2022-08-03T00:41:54.963Z,56.53
2022-08-03T00:46:59.194Z,56.62
2022-08-03T00:52:09.447Z,56.62
2022-08-03T00:57:14.104Z,56.61
2022-08-03T01:02:18.447Z,56.62
2022-08-03T01:07:29.130Z,56.61
2022-08-03T01:12:39.711Z,56.61
2022-08-03T01:17:48.755Z,56.55
2022-08-03T01:23:07.841Z,56.65
2022-08-03T01:28:20.664Z,56.56
2022-08-03T01:33:26.732Z,56.56
2022-08-03T01:38:33.362Z,56.69
2022-08-03T01:44:27.508Z,56.63
2022-08-03T01:49:09.422Z,56.57
2022-08-03T01:54:14.300Z,56.62
2022-08-03T01:59:19.903Z,56.55
2022-08-03T02:05:05.344Z,56.64
2022-08-03T02:10:16.504Z,56.44
2022-08-03T02:15:39.233Z,56.44
2022-08-03T02:20:44.080Z,56.61
2022-08-03T02:25:50.229Z,56.53
2022-08-03T02:30:55.367Z,56.64
2022-08-03T02:36:00.760Z,56.49
2022-08-03T02:41:06.058Z,56.62
2022-08-03T02:46:11.178Z,56.56
2022-08-03T02:51:16.677Z,56.62
2022-08-03T02:56:21.459Z,56.47
2022-08-03T03:01:26.451Z,56.66
2022-08-03T03:06:31.358Z,56.57
2022-08-03T03:11:36.817Z,56.62
2022-08-03T03:16:41.428Z,56.58
2022-08-03T03:21:46.517Z,56.56
2022-08-03T03:26:51.218Z,56.54
2022-08-03T03:31:57.077Z,56.54
2022-08-03T03:37:02.327Z,56.53
2022-08-03T03:42:06.547Z,56.50
2022-08-03T03:47:10.548Z,56.59
2022-08-03T03:52:17.181Z,56.62
2022-08-03T03:57:21.869Z,56.57
2022-08-03T04:02:26.408Z,56.59
2022-08-03T04:07:53.619Z,56.48
2022-08-03T04:12:59.577Z,56.62
2022-08-03T04:18:04.257Z,56.49
2022-08-03T04:23:13.522Z,56.57
2022-08-03T04:28:29.873Z,56.49
2022-08-03T04:33:37.817Z,56.58
2022-08-03T04:38:53.889Z,56.45
2022-08-03T04:43:58.616Z,56.58
2022-08-03T04:49:03.334Z,56.62
2022-08-03T04:54:07.607Z,56.68
2022-08-03T04:59:11.898Z,56.63
2022-08-03T05:04:16.138Z,56.64
2022-08-03T05:09:46.014Z,56.50
2022-08-03T05:14:44.708Z,56.42
2022-08-03T05:19:48.880Z,56.53
2022-08-03T05:24:53.157Z,56.58
2022-08-03T05:29:57.228Z,56.51
2022-08-03T05:35:55.941Z,56.44
2022-08-03T05:40:56.920Z,56.28
2022-08-03T05:46:12.066Z,56.20
2022-08-03T05:51:17.678Z,56.10
2022-08-03T05:56:24.449Z,56.16
2022-08-03T06:01:28.484Z,56.20
2022-08-03T06:06:32.878Z,56.19
2022-08-03T06:11:37.108Z,56.19
2022-08-03T06:16:41.339Z,56.28
2022-08-03T06:21:45.572Z,56.18
2022-08-03T06:26:51.138Z,56.14
2022-08-03T06:31:55.378Z,56.26
2022-08-03T06:37:02.137Z,56.21
2022-08-03T06:42:06.889Z,56.31
2022-08-03T06:47:14.118Z,56.28
2022-08-03T06:52:37.915Z,56.26
2022-08-03T06:57:42.440Z,56.17
2022-08-03T07:02:46.976Z,56.26
2022-08-03T07:07:51.318Z,56.19
2022-08-03T07:12:56.800Z,56.21
2022-08-03T07:18:01.499Z,56.10
2022-08-03T07:23:05.705Z,56.31
2022-08-03T07:28:09.880Z,56.06
2022-08-03T07:33:14.256Z,56.04
2022-08-03T07:38:21.025Z,56.19
2022-08-03T07:43:25.481Z,56.23
2022-08-03T07:48:29.680Z,56.01
2022-08-03T07:53:33.906Z,55.91
2022-08-03T07:58:46.129Z,55.97
2022-08-03T08:03:53.074Z,55.84
2022-08-03T08:09:01.666Z,55.69
2022-08-03T08:14:07.165Z,55.69
2022-08-03T08:19:10.959Z,55.83
2022-08-03T08:24:18.313Z,55.97
2022-08-03T08:29:24.734Z,56.04
2022-08-03T08:34:28.868Z,56.16
2022-08-03T08:39:36.668Z,56.26
2022-08-03T08:44:40.806Z,56.22
2022-08-03T08:50:03.821Z,56.26
2022-08-03T08:55:11.370Z,56.27
2022-08-03T09:00:16.504Z,56.26
2022-08-03T09:05:35.787Z,56.19
2022-08-03T09:10:45.228Z,56.14
2022-08-03T09:16:00.530Z,56.16
2022-08-03T09:21:30.676Z,56.20
2022-08-03T09:26:36.529Z,55.94
2022-08-03T09:31:43.289Z,55.92
2022-08-03T09:36:49.180Z,56.02
2022-08-03T09:42:06.647Z,55.70
2022-08-03T09:47:11.469Z,55.54
2022-08-03T09:52:32.976Z,55.76
2022-08-03T09:57:45.111Z,55.74
2022-08-03T10:02:50.438Z,55.70
2022-08-03T10:07:54.775Z,55.66
2022-08-03T10:12:59.388Z,55.76
2022-08-03T10:18:03.798Z,55.89
2022-08-03T10:23:08.806Z,55.79
2022-08-03T10:28:14.066Z,55.72
2022-08-03T10:33:50.824Z,55.88
2022-08-03T10:38:46.325Z,55.78
2022-08-03T10:43:51.449Z,55.76
2022-08-03T10:48:56.561Z,55.69
2022-08-03T10:54:02.109Z,55.72
2022-08-03T10:59:06.598Z,55.98
2022-08-03T11:04:17.373Z,55.79
2022-08-03T11:09:21.617Z,55.84
2022-08-03T11:14:26.356Z,55.90
2022-08-03T11:19:56.553Z,55.77
2022-08-03T11:25:02.711Z,55.75
2022-08-03T11:30:08.868Z,55.86
2022-08-03T11:35:13.587Z,55.89
2022-08-03T11:40:31.466Z,55.83
2022-08-03T11:45:36.507Z,55.81
2022-08-03T11:50:40.726Z,55.75
2022-08-03T11:55:48.431Z,55.71
2022-08-03T12:00:52.427Z,55.73
2022-08-03T12:05:56.196Z,55.73
2022-08-03T12:11:00.950Z,55.72
2022-08-03T12:16:05.514Z,55.81
2022-08-03T12:21:10.649Z,55.79
2022-08-03T12:26:15.478Z,55.70
2022-08-03T12:31:19.799Z,55.70
2022-08-03T12:36:24.157Z,55.87
2022-08-03T12:41:32.099Z,55.67
2022-08-03T12:46:36.589Z,55.67
2022-08-03T12:51:57.728Z,55.77
2022-08-03T12:57:02.562Z,55.64
2022-08-03T13:02:09.643Z,55.59
2022-08-03T13:07:14.671Z,55.61
2022-08-03T13:12:20.865Z,55.62
2022-08-03T13:17:25.561Z,55.66
2022-08-03T13:22:29.998Z,55.56
2022-08-03T13:28:03.388Z,55.67
2022-08-03T13:33:00.230Z,55.48
2022-08-03T13:38:04.635Z,55.53
2022-08-03T13:43:08.735Z,55.46
2022-08-03T13:48:12.655Z,55.43
2022-08-03T13:53:16.679Z,55.35
2022-08-03T13:58:21.118Z,55.48
2022-08-03T14:03:25.558Z,55.55
2022-08-03T14:08:30.078Z,55.46
2022-08-03T14:13:34.120Z,55.33
2022-08-03T14:18:38.148Z,55.54
2022-08-03T14:23:45.667Z,55.57
2022-08-03T14:28:49.679Z,55.53
2022-08-03T14:33:53.818Z,55.52
2022-08-03T14:39:01.257Z,55.47
2022-08-03T14:44:06.360Z,55.43
2022-08-03T14:50:38.081Z,55.44
2022-08-03T14:54:35.018Z,55.29
2022-08-03T14:59:56.708Z,55.35
2022-08-03T15:05:01.718Z,55.29
2022-08-03T15:10:06.727Z,55.37
2022-08-03T15:15:11.350Z,55.27
2022-08-03T15:20:25.593Z,55.16
2022-08-03T15:26:31.864Z,55.20
2022-08-03T15:30:57.958Z,55.10
2022-08-03T15:36:02.020Z,55.04
2022-08-03T15:41:06.159Z,55.17
2022-08-03T15:46:29.194Z,55.09
2022-08-03T15:51:33.987Z,54.96
2022-08-03T15:56:38.149Z,55.01
2022-08-03T16:01:42.175Z,54.93
2022-08-03T16:06:46.766Z,54.91
2022-08-03T16:11:51.098Z,54.89
2022-08-03T16:16:55.444Z,54.96
2022-08-03T16:21:59.831Z,54.95
2022-08-03T16:27:05.278Z,54.94
2022-08-03T16:32:11.865Z,54.84
2022-08-03T16:37:37.813Z,54.94
2022-08-03T16:42:40.419Z,54.90
2022-08-03T16:47:44.859Z,54.87
2022-08-03T16:52:49.378Z,54.82
2022-08-03T16:57:58.232Z,54.98
2022-08-03T17:03:19.160Z,54.86
2022-08-03T17:08:27.312Z,54.83
2022-08-03T17:13:39.750Z,54.79
2022-08-03T17:18:48.081Z,54.76
2022-08-03T17:23:55.354Z,54.72
2022-08-03T17:29:02.665Z,54.73
2022-08-03T17:34:16.829Z,54.76
2022-08-03T17:39:36.154Z,54.91
2022-08-03T17:44:47.802Z,54.75
2022-08-03T17:49:52.820Z,54.81
2022-08-03T17:55:56.383Z,54.86
2022-08-03T18:00:45.178Z,54.93
2022-08-03T18:06:11.022Z,54.96
2022-08-03T18:11:21.291Z,54.85
2022-08-03T18:16:28.809Z,54.89
2022-08-03T18:22:02.144Z,54.97
2022-08-03T18:27:02.272Z,55.03
2022-08-03T18:32:13.286Z,55.03
2022-08-03T18:37:21.737Z,55.25
2022-08-03T18:42:28.868Z,55.14
2022-08-03T18:47:52.686Z,55.12
2022-08-03T18:53:02.533Z,55.17
2022-08-03T18:58:17.623Z,55.08
2022-08-03T19:03:24.478Z,55.04
2022-08-03T19:08:35.708Z,55.08
2022-08-03T19:13:44.858Z,55.13
2022-08-03T19:18:54.883Z,55.15
2022-08-03T19:24:06.629Z,55.07
2022-08-03T19:29:15.008Z,55.03
2022-08-03T19:34:20.599Z,55.02
2022-08-03T19:39:28.373Z,55.16
2022-08-03T19:44:37.149Z,55.04
2022-08-03T19:50:04.914Z,55.13
2022-08-03T20:00:38.258Z,55.18
2022-08-03T20:05:52.016Z,55.07
2022-08-03T20:10:59.380Z,54.97
2022-08-03T20:16:03.746Z,55.05
2022-08-03T20:21:15.100Z,55.18
2022-08-03T20:26:20.428Z,54.97
2022-08-03T20:31:30.589Z,55.01
2022-08-03T20:36:38.136Z,55.15
2022-08-03T20:41:42.359Z,55.04
2022-08-03T20:46:50.274Z,55.03
2022-08-03T20:52:00.781Z,55.09
2022-08-03T20:57:07.135Z,55.13
2022-08-03T21:02:13.609Z,55.10
2022-08-03T21:07:24.717Z,55.01
2022-08-03T21:12:54.108Z,54.89
2022-08-03T21:13:03.268Z,55.10
2022-08-03T21:17:59.139Z,55.23
2022-08-03T21:23:04.468Z,55.16
2022-08-03T21:28:08.806Z,55.00
2022-08-03T21:33:12.840Z,55.10
2022-08-03T21:38:19.928Z,55.17
2022-08-03T21:43:24.458Z,55.09
2022-08-03T21:48:29.218Z,55.22
2022-08-03T21:54:03.020Z,55.07
2022-08-03T21:59:04.399Z,55.17
2022-08-03T22:04:11.943Z,55.17
2022-08-03T22:09:34.984Z,55.06
2022-08-03T22:14:39.318Z,55.11
2022-08-03T22:19:43.650Z,55.16
2022-08-03T22:24:48.758Z,55.14
2022-08-03T22:29:53.450Z,55.12
2022-08-03T22:34:58.511Z,55.18
2022-08-03T22:40:05.081Z,55.16
2022-08-03T22:45:09.679Z,55.12
2022-08-03T22:50:33.143Z,55.14
2022-08-03T22:55:38.191Z,55.10
2022-08-03T23:00:45.022Z,55.10
2022-08-03T23:06:00.695Z,55.02
2022-08-03T23:11:08.599Z,55.01
2022-08-03T23:16:13.670Z,55.02
2022-08-03T23:21:19.941Z,55.09
2022-08-03T23:26:44.219Z,55.08
2022-08-03T23:31:48.510Z,55.08
2022-08-03T23:36:54.260Z,55.17
2022-08-03T23:41:59.320Z,55.27
2022-08-03T23:47:03.715Z,55.26
2022-08-03T23:52:09.833Z,55.23
2022-08-03T23:57:19.805Z,55.16
